Ignacio, CO

9:11 AM MDT on September 03, 2015 (GMT -0600)
Durango-La Plata County | | Change Station
CLOSE
Current Station
Airport
Location: Durango,
Elevation: 6683 ft
Nearby Weather Stations

Elev 6683 ft 37.14 °N, 107.76 °W | Updated 18 minutes ago

Overcast
Overcast
62 °F
Feels Like 62 °F
N
4
Wind Variable Wind from NNW

Today
High -- | Low -- °F
--% Chance of Precip.
Yesterday
High -- | Low -- °F
Precip. -- in
6:43 AM 7:36 PM
Waning Gibbous, 69% visible
Pressure 30.01 in
Visibility 10.0 miles
Clouds Overcast 8000 ft
Dew Point 51 °F
Humidity 67%
Rainfall 0.00 in
Snow Depth Not available.
UV 1 out of 12
Pollen 6.00 out of 12
Air Quality Not available.
Flu Activity Not available.
METAR KDRO 031453Z AUTO 34003KT 10SM OVC080 17/11 A3025 RMK AO2 SLP162 T01670106 52008
Pressure 30.01 in
Visibility 10.0 miles
Clouds Overcast 8000 ft
Dew Point 51 °F
Humidity 67%
Rainfall 0.00 in
Snow Depth Not available.
UV 1 out of 12
Pollen 6.00 out of 12
Air Quality Not available.
Flu Activity Not available.
METAR KDRO 031453Z AUTO 34003KT 10SM OVC080 17/11 A3025 RMK AO2 SLP162 T01670106 52008

10-Day Weather Forecast

×

Almanac

Astronomy

Sep. 03, 2015 Rise Set
Actual Time
Civil Twilight
Nautical Twilight
Astronomical Twilight
Moon
Length of Visible Light
Length of Day
Tomorrow will be .
, % of the Moon is Illuminated

Today's Extremes

State Highs State Lows

Community

WunderPhotos

Upload Photos

1,851,972 photos uploaded!

WunderBlogs® & News

Nearby

Air Quality

  Air Quality AQ Index Pollutant
Not available.

Snow Depth

Station Depth Elevation

Earthquake Activity

City Distance Mag. Time & Date
Minimum magnitude displayed is 2.5.

Coastal Water Temperatures

Place Temperature

Stations

Nearby Weather Stations

Station Location Temp. Windchill Dew Point Humidity Wind Precip. Elev Updated Type